createdAt,value
2018-04-17T00:00:05.889Z,0
2018-04-17T00:01:09.050Z,0
2018-04-17T00:02:11.687Z,0
2018-04-17T00:03:14.084Z,0
2018-04-17T00:04:16.468Z,0
2018-04-17T00:05:18.880Z,0
2018-04-17T00:06:21.418Z,0
2018-04-17T00:07:23.751Z,0
2018-04-17T00:08:26.134Z,0
2018-04-17T00:09:29.058Z,0
2018-04-17T00:10:31.846Z,0
2018-04-17T00:11:34.267Z,0
2018-04-17T00:12:36.906Z,0
2018-04-17T00:13:39.314Z,0
2018-04-17T00:14:41.715Z,0
2018-04-17T00:15:44.200Z,0
2018-04-17T00:16:46.597Z,0
2018-04-17T00:17:48.973Z,0
2018-04-17T00:18:51.786Z,0
2018-04-17T00:19:54.448Z,0
2018-04-17T00:20:57.120Z,0
2018-04-17T00:21:59.685Z,0
2018-04-17T00:23:02.065Z,0
2018-04-17T00:24:04.468Z,0
2018-04-17T00:25:07.110Z,0
2018-04-17T00:26:09.857Z,0
2018-04-17T00:27:12.533Z,0
2018-04-17T00:28:15.530Z,0
2018-04-17T00:29:18.483Z,0
2018-04-17T00:30:21.173Z,0
2018-04-17T00:31:24.399Z,0
2018-04-17T00:32:26.861Z,0
2018-04-17T00:33:29.187Z,0
2018-04-17T00:34:32.064Z,0
2018-04-17T00:35:34.448Z,0
2018-04-17T00:36:36.851Z,0
2018-04-17T00:37:39.397Z,0
2018-04-17T00:38:41.777Z,0
2018-04-17T00:39:44.746Z,0
2018-04-17T00:40:47.395Z,0
2018-04-17T00:41:49.779Z,0
2018-04-17T00:42:52.157Z,0
2018-04-17T00:43:54.559Z,0
2018-04-17T00:44:57.537Z,0
2018-04-17T00:45:59.919Z,0
2018-04-17T00:47:02.547Z,0
2018-04-17T00:48:05.313Z,0
2018-04-17T00:49:07.693Z,0
2018-04-17T00:50:10.253Z,0
2018-04-17T00:51:13.037Z,0
2018-04-17T00:52:15.412Z,0
2018-04-17T00:53:17.801Z,0
2018-04-17T00:54:20.507Z,0
2018-04-17T00:55:22.881Z,0
2018-04-17T00:56:25.572Z,0
2018-04-17T00:57:28.545Z,0
2018-04-17T00:58:31.208Z,0
2018-04-17T00:59:33.588Z,0
2018-04-17T01:00:36.586Z,0
2018-04-17T01:01:38.967Z,0
2018-04-17T01:02:41.354Z,0
2018-04-17T01:03:43.960Z,0
2018-04-17T01:04:46.340Z,0
2018-04-17T01:05:48.734Z,0
2018-04-17T01:06:51.445Z,0
2018-04-17T01:07:53.827Z,0
2018-04-17T01:08:56.885Z,0
2018-04-17T01:09:59.677Z,0
2018-04-17T01:11:02.065Z,0
2018-04-17T01:12:04.458Z,0
2018-04-17T01:13:07.104Z,0
2018-04-17T01:14:10.055Z,0
2018-04-17T01:15:12.431Z,0
2018-04-17T01:16:15.213Z,0
2018-04-17T01:17:17.585Z,0
2018-04-17T01:18:19.970Z,0
2018-04-17T01:19:22.670Z,0
2018-04-17T01:20:25.068Z,0
2018-04-17T01:21:27.448Z,0
2018-04-17T01:22:30.100Z,0
2018-04-17T01:23:32.470Z,0
2018-04-17T01:24:34.877Z,0
2018-04-17T01:25:37.243Z,0
2018-04-17T01:26:39.633Z,0
2018-04-17T01:27:42.013Z,0
2018-04-17T01:28:44.399Z,0
2018-04-17T01:29:46.930Z,0
2018-04-17T01:30:49.319Z,0
2018-04-17T01:31:51.695Z,0
2018-04-17T01:32:54.180Z,0
2018-04-17T01:33:56.569Z,0
2018-04-17T01:34:58.954Z,0
2018-04-17T01:36:01.361Z,0
2018-04-17T01:37:04.280Z,0
2018-04-17T01:38:06.678Z,0
2018-04-17T01:39:09.830Z,0
2018-04-17T01:40:12.218Z,0
2018-04-17T01:41:14.598Z,0
2018-04-17T01:42:17.303Z,0
2018-04-17T01:43:19.679Z,0
2018-04-17T01:44:22.065Z,0
2018-04-17T01:45:24.434Z,0
2018-04-17T01:46:27.036Z,0
2018-04-17T01:47:29.405Z,0
2018-04-17T01:48:31.779Z,0
2018-04-17T01:49:34.454Z,0
2018-04-17T01:50:36.833Z,0
2018-04-17T01:51:39.514Z,0
2018-04-17T01:52:41.894Z,0
2018-04-17T01:53:44.849Z,0
2018-04-17T01:54:47.227Z,0
2018-04-17T01:55:49.615Z,0
2018-04-17T01:56:52.000Z,0
2018-04-17T01:57:54.365Z,0
2018-04-17T01:58:56.759Z,0
2018-04-17T01:59:59.138Z,0
2018-04-17T02:01:01.532Z,0
2018-04-17T02:02:03.910Z,0
2018-04-17T02:03:06.306Z,0
2018-04-17T02:04:08.969Z,0
2018-04-17T02:05:11.350Z,0
2018-04-17T02:06:13.728Z,0
2018-04-17T02:07:16.107Z,0
2018-04-17T02:08:18.772Z,0
2018-04-17T02:09:21.440Z,0
2018-04-17T02:10:23.813Z,0
2018-04-17T02:11:26.196Z,0
2018-04-17T02:12:28.598Z,0
2018-04-17T02:13:31.248Z,0
2018-04-17T02:14:33.912Z,0
2018-04-17T02:15:36.298Z,0
2018-04-17T02:16:38.975Z,0
2018-04-17T02:17:41.740Z,0
2018-04-17T02:18:44.512Z,0
2018-04-17T02:19:46.887Z,0
2018-04-17T02:20:49.276Z,0
2018-04-17T02:21:51.668Z,0
2018-04-17T02:22:54.048Z,0
2018-04-17T02:23:56.816Z,0
2018-04-17T02:24:59.196Z,0
2018-04-17T02:26:01.568Z,0
2018-04-17T02:27:04.246Z,0
2018-04-17T02:28:06.633Z,0
2018-04-17T02:29:09.010Z,0
2018-04-17T02:30:11.675Z,0
2018-04-17T02:31:14.360Z,0
2018-04-17T02:32:17.015Z,0
2018-04-17T02:33:19.418Z,0
2018-04-17T02:34:21.798Z,0
2018-04-17T02:35:24.196Z,0
2018-04-17T02:36:26.582Z,0
2018-04-17T02:37:28.962Z,0
2018-04-17T02:38:31.618Z,0
2018-04-17T02:39:35.137Z,0
2018-04-17T02:40:37.524Z,0
2018-04-17T02:41:39.913Z,0
2018-04-17T02:42:42.675Z,0
2018-04-17T02:43:45.343Z,0
2018-04-17T02:44:47.711Z,0
2018-04-17T02:45:50.117Z,0
2018-04-17T02:46:52.487Z,0
2018-04-17T02:47:55.151Z,0
2018-04-17T02:48:57.811Z,0
2018-04-17T02:50:00.197Z,0
2018-04-17T02:51:03.242Z,0
2018-04-17T02:52:05.630Z,0
2018-04-17T02:53:08.011Z,0
2018-04-17T02:54:10.689Z,0
2018-04-17T02:55:13.089Z,0
2018-04-17T02:56:15.754Z,0
2018-04-17T02:57:18.808Z,0
2018-04-17T02:58:21.612Z,0
2018-04-17T02:59:24.002Z,0
2018-04-17T03:00:26.769Z,0
2018-04-17T03:01:29.155Z,0
2018-04-17T03:02:31.537Z,0
2018-04-17T03:03:34.578Z,0
2018-04-17T03:04:36.972Z,0
2018-04-17T03:05:39.628Z,0
2018-04-17T03:06:42.004Z,0
2018-04-17T03:07:44.960Z,0
2018-04-17T03:08:47.335Z,0
2018-04-17T03:09:49.731Z,0
2018-04-17T03:10:52.118Z,0
2018-04-17T03:11:54.495Z,0
2018-04-17T03:12:56.881Z,0
2018-04-17T03:13:59.258Z,0
2018-04-17T03:15:01.634Z,0
2018-04-17T03:16:04.405Z,0
2018-04-17T03:17:07.160Z,0
2018-04-17T03:18:09.540Z,0
2018-04-17T03:19:11.938Z,0
2018-04-17T03:20:14.591Z,0
2018-04-17T03:21:16.979Z,0
2018-04-17T03:22:19.367Z,0
2018-04-17T03:23:21.742Z,0
2018-04-17T03:24:24.128Z,0
2018-04-17T03:25:26.508Z,0
2018-04-17T03:26:28.892Z,0
2018-04-17T03:27:31.278Z,0
2018-04-17T03:28:33.653Z,0
2018-04-17T03:29:36.036Z,0
2018-04-17T03:30:38.708Z,0
2018-04-17T03:31:41.083Z,0
2018-04-17T03:32:43.744Z,0
2018-04-17T03:33:46.114Z,0
2018-04-17T03:34:48.490Z,0
2018-04-17T03:35:50.871Z,0
2018-04-17T03:36:53.260Z,0
2018-04-17T03:37:55.649Z,0
2018-04-17T03:38:58.031Z,0
2018-04-17T03:40:00.714Z,0
2018-04-17T03:41:03.087Z,0
2018-04-17T03:42:05.479Z,0
2018-04-17T03:43:08.130Z,0
2018-04-17T03:44:10.510Z,0
2018-04-17T03:45:13.168Z,0
2018-04-17T03:46:15.547Z,0
2018-04-17T03:47:17.936Z,0
2018-04-17T03:48:20.315Z,0
2018-04-17T03:49:22.696Z,0
2018-04-17T03:50:25.084Z,0
2018-04-17T03:51:27.791Z,0
2018-04-17T03:52:30.192Z,0
2018-04-17T03:53:32.568Z,0
2018-04-17T03:54:34.930Z,0
2018-04-17T03:55:37.598Z,0
2018-04-17T03:56:40.265Z,0
2018-04-17T03:57:42.644Z,0
2018-04-17T03:58:45.026Z,0
2018-04-17T03:59:47.402Z,0
2018-04-17T04:00:49.780Z,0
2018-04-17T04:01:52.177Z,0
2018-04-17T04:02:54.546Z,0
2018-04-17T04:03:56.932Z,1
2018-04-17T04:04:59.309Z,1
2018-04-17T04:06:01.697Z,1
2018-04-17T04:07:04.358Z,1
2018-04-17T04:08:07.128Z,1
2018-04-17T04:09:09.505Z,1
2018-04-17T04:10:11.887Z,1
2018-04-17T04:11:14.262Z,2
2018-04-17T04:12:16.644Z,2
2018-04-17T04:13:19.024Z,2
2018-04-17T04:14:21.409Z,2
2018-04-17T04:15:24.186Z,2
2018-04-17T04:16:26.583Z,3
2018-04-17T04:17:29.259Z,3
2018-04-17T04:18:32.038Z,3
2018-04-17T04:19:34.803Z,3
2018-04-17T04:20:37.182Z,4
2018-04-17T04:21:39.567Z,4
2018-04-17T04:22:41.945Z,4
2018-04-17T04:23:44.328Z,4
2018-04-17T04:24:46.717Z,5
2018-04-17T04:25:49.085Z,5
2018-04-17T04:26:51.463Z,5
2018-04-17T04:27:53.853Z,6
2018-04-17T04:28:56.219Z,6
2018-04-17T04:29:58.595Z,6
2018-04-17T04:31:00.980Z,7
2018-04-17T04:32:03.353Z,7
2018-04-17T04:33:05.735Z,7
2018-04-17T04:34:08.410Z,8
2018-04-17T04:35:10.767Z,8
2018-04-17T04:36:13.442Z,8
2018-04-17T04:37:15.812Z,9
2018-04-17T04:38:18.189Z,9
2018-04-17T04:39:20.564Z,9
2018-04-17T04:40:22.945Z,10
2018-04-17T04:41:25.320Z,10
2018-04-17T04:42:27.684Z,11
2018-04-17T04:43:30.073Z,11
2018-04-17T04:44:32.459Z,11
2018-04-17T04:45:34.844Z,12
2018-04-17T04:46:37.229Z,12
2018-04-17T04:47:39.607Z,12
2018-04-17T04:48:42.263Z,13
2018-04-17T04:49:44.642Z,13
2018-04-17T04:50:47.016Z,14
2018-04-17T04:51:49.668Z,14
2018-04-17T04:52:52.070Z,14
2018-04-17T04:53:54.729Z,15
2018-04-17T04:54:57.485Z,15
2018-04-17T04:55:59.866Z,15
2018-04-17T04:57:02.634Z,16
2018-04-17T04:58:05.305Z,16
2018-04-17T04:59:07.965Z,16
2018-04-17T05:00:10.341Z,17
2018-04-17T05:01:12.738Z,17
2018-04-17T05:02:15.115Z,17
2018-04-17T05:03:17.879Z,18
2018-04-17T05:04:20.540Z,18
2018-04-17T05:05:23.584Z,18
2018-04-17T05:06:26.251Z,19
2018-04-17T05:07:28.637Z,19
2018-04-17T05:08:30.998Z,19
2018-04-17T05:09:33.664Z,20
2018-04-17T05:10:36.038Z,20
2018-04-17T05:11:38.421Z,20
2018-04-17T05:12:40.797Z,21
2018-04-17T05:13:43.846Z,21
2018-04-17T05:14:46.497Z,21
2018-04-17T05:15:49.163Z,22
2018-04-17T05:16:51.538Z,22
2018-04-17T05:17:53.925Z,22
2018-04-17T05:18:56.312Z,23
2018-04-17T05:19:58.987Z,23
2018-04-17T05:21:01.370Z,23
2018-04-17T05:22:03.748Z,23
2018-04-17T05:23:06.790Z,24
2018-04-17T05:24:09.173Z,24
2018-04-17T05:25:11.549Z,24
2018-04-17T05:26:13.934Z,24
2018-04-17T05:27:16.686Z,24
2018-04-17T05:28:19.072Z,24
2018-04-17T05:29:21.449Z,25
2018-04-17T05:30:24.126Z,25
2018-04-17T05:31:26.499Z,25
2018-04-17T05:32:28.875Z,26
2018-04-17T05:33:31.254Z,26
2018-04-17T05:34:33.649Z,26
2018-04-17T05:35:36.030Z,27
2018-04-17T05:36:38.694Z,27
2018-04-17T05:37:41.067Z,27
2018-04-17T05:38:43.460Z,27
2018-04-17T05:39:45.846Z,28
2018-04-17T05:40:48.673Z,28
2018-04-17T05:41:51.155Z,28
2018-04-17T05:42:53.522Z,28
2018-04-17T05:43:55.913Z,29
2018-04-17T05:44:58.293Z,29
2018-04-17T05:46:00.673Z,29
2018-04-17T05:47:03.051Z,29
2018-04-17T05:48:06.089Z,30
2018-04-17T05:49:08.469Z,30
2018-04-17T05:50:11.258Z,30
2018-04-17T05:51:13.963Z,31
2018-04-17T05:52:16.340Z,31
2018-04-17T05:53:19.028Z,31
2018-04-17T05:54:21.405Z,31
2018-04-17T05:55:23.794Z,32
2018-04-17T05:56:26.453Z,32
2018-04-17T05:57:28.833Z,32
2018-04-17T05:58:31.223Z,32
2018-04-17T05:59:33.903Z,33
2018-04-17T06:00:36.579Z,33
2018-04-17T06:01:38.956Z,33
2018-04-17T06:02:41.619Z,34
2018-04-17T06:03:44.283Z,33
2018-04-17T06:04:46.662Z,34
2018-04-17T06:05:49.338Z,34
2018-04-17T06:06:51.723Z,34
2018-04-17T06:07:54.090Z,34
2018-04-17T06:08:56.765Z,35
2018-04-17T06:09:59.151Z,35
2018-04-17T06:11:01.531Z,35
2018-04-17T06:12:03.931Z,35
2018-04-17T06:13:06.301Z,36
2018-04-17T06:14:08.685Z,36
2018-04-17T06:15:11.350Z,36
2018-04-17T06:16:14.013Z,37
2018-04-17T06:17:16.391Z,37
2018-04-17T06:18:18.774Z,37
2018-04-17T06:19:21.165Z,38
2018-04-17T06:20:23.544Z,38
2018-04-17T06:21:25.943Z,38
2018-04-17T06:22:28.629Z,38
2018-04-17T06:23:31.048Z,39
2018-04-17T06:24:33.434Z,39
2018-04-17T06:25:35.846Z,39
2018-04-17T06:26:38.224Z,40
2018-04-17T06:27:40.896Z,40
2018-04-17T06:28:43.286Z,40
2018-04-17T06:29:45.687Z,41
2018-04-17T06:30:48.163Z,41
2018-04-17T06:31:50.536Z,41
2018-04-17T06:32:52.933Z,41
2018-04-17T06:33:55.359Z,42
2018-04-17T06:34:58.133Z,42
2018-04-17T06:36:00.805Z,42
2018-04-17T06:37:03.260Z,42
2018-04-17T06:38:05.648Z,43
2018-04-17T06:39:08.020Z,43
2018-04-17T06:40:10.415Z,43
2018-04-17T06:41:12.858Z,44
2018-04-17T06:42:15.221Z,44
2018-04-17T06:43:17.617Z,44
2018-04-17T06:44:20.666Z,44
2018-04-17T06:45:23.193Z,45
2018-04-17T06:46:25.575Z,45
2018-04-17T06:47:28.354Z,45
2018-04-17T06:48:31.064Z,45
2018-04-17T06:49:33.452Z,45
2018-04-17T06:50:35.894Z,46
2018-04-17T06:51:38.925Z,46
2018-04-17T06:52:42.532Z,47
2018-04-17T06:53:44.806Z,47
2018-04-17T06:54:47.197Z,47
2018-04-17T06:55:49.871Z,48
2018-04-17T06:56:52.257Z,48
2018-04-17T06:57:54.647Z,48
2018-04-17T06:58:57.314Z,48
2018-04-17T06:59:59.698Z,49
2018-04-17T07:01:02.085Z,49
2018-04-17T07:02:05.077Z,50
2018-04-17T07:03:07.439Z,50
2018-04-17T07:04:09.840Z,51
2018-04-17T07:05:12.931Z,51
2018-04-17T07:06:15.972Z,52
2018-04-17T07:07:18.365Z,52
2018-04-17T07:08:20.749Z,52
2018-04-17T07:09:23.133Z,53
2018-04-17T07:10:25.903Z,53
2018-04-17T07:11:28.290Z,54
2018-04-17T07:12:30.680Z,54
2018-04-17T07:13:33.075Z,55
2018-04-17T07:14:35.438Z,55
2018-04-17T07:15:37.829Z,56
2018-04-17T07:16:40.500Z,57
2018-04-17T07:17:42.888Z,57
2018-04-17T07:18:45.616Z,57
2018-04-17T07:19:48.536Z,58
2018-04-17T07:20:51.098Z,58
2018-04-17T07:21:53.807Z,59
2018-04-17T07:22:56.531Z,59
2018-04-17T07:23:58.927Z,60
2018-04-17T07:25:01.691Z,60
2018-04-17T07:26:04.978Z,61
2018-04-17T07:27:07.837Z,61
2018-04-17T07:28:10.596Z,62
2018-04-17T07:29:13.393Z,62
2018-04-17T07:30:16.386Z,63
2018-04-17T07:31:18.953Z,64
2018-04-17T07:32:21.335Z,64
2018-04-17T07:33:24.000Z,65
2018-04-17T07:34:26.388Z,66
2018-04-17T07:35:28.776Z,66
2018-04-17T07:36:31.160Z,65
2018-04-17T07:37:33.550Z,66
2018-04-17T07:38:35.929Z,66
2018-04-17T07:39:38.319Z,67
2018-04-17T07:40:40.694Z,67
2018-04-17T07:41:43.082Z,67
2018-04-17T07:42:45.472Z,68
2018-04-17T07:43:48.137Z,69
2018-04-17T07:44:50.805Z,70
2018-04-17T07:45:53.487Z,71
2018-04-17T07:46:56.160Z,71
2018-04-17T07:47:58.552Z,73
2018-04-17T07:49:00.932Z,73
2018-04-17T07:50:03.321Z,73
2018-04-17T07:51:06.269Z,73
2018-04-17T07:52:08.658Z,73
2018-04-17T07:53:11.330Z,74
2018-04-17T07:54:14.391Z,76
2018-04-17T07:55:16.885Z,77
2018-04-17T07:56:19.277Z,78
2018-04-17T07:57:21.656Z,78
2018-04-17T07:58:24.043Z,194
2018-04-17T07:59:26.435Z,373
2018-04-17T08:00:28.819Z,364
2018-04-17T08:01:31.202Z,268
2018-04-17T08:02:33.597Z,229
2018-04-17T08:03:35.981Z,242
2018-04-17T08:04:38.360Z,309
2018-04-17T08:05:40.748Z,315
2018-04-17T08:06:43.462Z,360
2018-04-17T08:07:46.127Z,309
2018-04-17T08:08:49.130Z,327
2018-04-17T08:09:51.514Z,347
2018-04-17T08:10:53.894Z,355
2018-04-17T08:11:57.107Z,342
2018-04-17T08:12:59.777Z,347
2018-04-17T08:14:02.337Z,358
2018-04-17T08:15:04.728Z,350
2018-04-17T08:16:07.241Z,376
2018-04-17T08:17:09.631Z,366
2018-04-17T08:18:12.022Z,364
2018-04-17T08:19:14.677Z,401
2018-04-17T08:20:17.068Z,403
2018-04-17T08:21:19.460Z,390
2018-04-17T08:22:21.849Z,418
2018-04-17T08:23:24.235Z,406
2018-04-17T08:24:26.923Z,389
2018-04-17T08:25:29.304Z,368
2018-04-17T08:26:32.087Z,380
2018-04-17T08:27:34.469Z,408
2018-04-17T08:28:37.246Z,432
2018-04-17T08:29:40.013Z,430
2018-04-17T08:30:42.408Z,422
2018-04-17T08:31:44.794Z,430
2018-04-17T08:32:47.477Z,452
2018-04-17T08:33:50.307Z,437
2018-04-17T08:34:52.694Z,432
2018-04-17T08:35:55.359Z,463
2018-04-17T08:36:57.781Z,442
2018-04-17T08:38:00.141Z,426
2018-04-17T08:39:03.194Z,445
2018-04-17T08:40:05.575Z,399
2018-04-17T08:41:07.967Z,397
2018-04-17T08:42:10.746Z,435
2018-04-17T08:43:13.153Z,433
2018-04-17T08:44:16.004Z,431
2018-04-17T08:45:18.667Z,404
2018-04-17T08:46:21.058Z,453
2018-04-17T08:47:23.459Z,490
2018-04-17T08:48:25.847Z,466
2018-04-17T08:49:28.247Z,447
2018-04-17T08:50:30.632Z,470
2018-04-17T08:51:33.021Z,460
2018-04-17T08:52:35.762Z,461
2018-04-17T08:53:38.148Z,461
2018-04-17T08:54:40.933Z,448
2018-04-17T08:55:43.321Z,415
2018-04-17T08:56:45.705Z,438
2018-04-17T08:57:48.098Z,501
2018-04-17T08:58:50.496Z,459
2018-04-17T08:59:52.872Z,467
2018-04-17T09:00:55.665Z,504
2018-04-17T09:01:58.777Z,509
2018-04-17T09:03:02.063Z,546
2018-04-17T09:04:04.756Z,505
2018-04-17T09:05:07.187Z,458
2018-04-17T09:06:09.872Z,433
2018-04-17T09:07:12.249Z,503
2018-04-17T09:08:14.645Z,537
2018-04-17T09:09:17.047Z,497
2018-04-17T09:10:19.762Z,500
2018-04-17T09:11:22.156Z,485
2018-04-17T09:12:24.990Z,515
2018-04-17T09:13:27.393Z,486
2018-04-17T09:14:29.784Z,491
2018-04-17T09:15:32.183Z,464
2018-04-17T09:16:34.561Z,501
2018-04-17T09:17:36.969Z,530
2018-04-17T09:18:39.651Z,531
2018-04-17T09:19:42.053Z,556
2018-04-17T09:20:44.753Z,530
2018-04-17T09:21:47.152Z,513
2018-04-17T09:22:49.831Z,503
2018-04-17T09:23:52.222Z,494
2018-04-17T09:24:54.623Z,466
2018-04-17T09:25:57.026Z,497
2018-04-17T09:26:59.422Z,171
2018-04-17T09:28:02.211Z,532
2018-04-17T09:29:04.609Z,599
2018-04-17T09:30:07.291Z,574
2018-04-17T09:31:09.681Z,609
2018-04-17T09:32:12.082Z,536
2018-04-17T09:33:15.555Z,550
2018-04-17T09:34:18.304Z,172
2018-04-17T09:35:20.699Z,145
2018-04-17T09:36:23.101Z,444
2018-04-17T09:37:25.794Z,158
2018-04-17T09:38:28.188Z,570
2018-04-17T09:39:30.872Z,279
2018-04-17T09:40:33.713Z,545
2018-04-17T09:41:36.492Z,196
2018-04-17T09:42:39.282Z,389
2018-04-17T09:43:41.960Z,458
2018-04-17T09:44:44.348Z,543
2018-04-17T09:45:46.750Z,618
2018-04-17T09:46:49.148Z,222
2018-04-17T09:47:51.539Z,580
2018-04-17T09:48:54.825Z,542
2018-04-17T09:49:57.257Z,581
2018-04-17T09:50:59.608Z,588
2018-04-17T09:52:02.023Z,313
2018-04-17T09:53:05.285Z,143
2018-04-17T09:54:07.951Z,624
2018-04-17T09:55:10.372Z,485
2018-04-17T09:56:13.441Z,562
2018-04-17T09:57:15.845Z,578
2018-04-17T09:58:18.569Z,569
2018-04-17T09:59:21.920Z,329
2018-04-17T10:00:24.318Z,188
2018-04-17T10:01:27.015Z,509
2018-04-17T10:02:29.956Z,129
2018-04-17T10:03:33.099Z,134
2018-04-17T10:04:35.472Z,210
2018-04-17T10:05:37.864Z,167
2018-04-17T10:06:40.535Z,280
2018-04-17T10:07:42.937Z,591
2018-04-17T10:08:45.404Z,568
2018-04-17T10:09:48.128Z,565
2018-04-17T10:10:50.516Z,176
2018-04-17T10:11:52.919Z,152
2018-04-17T10:12:55.691Z,143
2018-04-17T10:13:58.092Z,157
2018-04-17T10:15:00.483Z,177
2018-04-17T10:16:02.876Z,529
2018-04-17T10:17:05.280Z,137
2018-04-17T10:18:07.940Z,155
2018-04-17T10:19:10.343Z,121
2018-04-17T10:20:12.738Z,119
2018-04-17T10:21:15.139Z,125
2018-04-17T10:22:17.814Z,538
2018-04-17T10:23:20.217Z,115
2018-04-17T10:24:22.889Z,104
2018-04-17T10:25:25.295Z,110
2018-04-17T10:26:27.692Z,129
2018-04-17T10:27:30.085Z,152
2018-04-17T10:28:33.054Z,114
2018-04-17T10:29:35.731Z,109
2018-04-17T10:30:38.399Z,116
2018-04-17T10:31:40.785Z,141
2018-04-17T10:32:43.189Z,171
2018-04-17T10:33:45.581Z,160
2018-04-17T10:34:48.357Z,148
2018-04-17T10:35:50.755Z,156
2018-04-17T10:36:53.165Z,162
2018-04-17T10:37:55.553Z,168
2018-04-17T10:38:57.961Z,166
2018-04-17T10:40:00.336Z,179
2018-04-17T10:41:03.021Z,509
2018-04-17T10:42:05.708Z,176
2018-04-17T10:43:08.763Z,145
2018-04-17T10:44:11.160Z,137
2018-04-17T10:45:13.538Z,135
2018-04-17T10:46:15.946Z,150
2018-04-17T10:47:18.613Z,176
2018-04-17T10:48:21.290Z,439
2018-04-17T10:49:23.985Z,191
2018-04-17T10:50:26.671Z,143
2018-04-17T10:51:29.467Z,131
2018-04-17T10:52:31.865Z,152
2018-04-17T10:53:34.554Z,175
2018-04-17T10:54:36.936Z,158
2018-04-17T10:55:39.333Z,146
2018-04-17T10:56:41.724Z,145
2018-04-17T10:57:44.788Z,188
2018-04-17T10:58:47.188Z,218
2018-04-17T10:59:50.012Z,571
2018-04-17T11:00:52.692Z,567
2018-04-17T11:01:55.472Z,291
2018-04-17T11:02:58.160Z,564
2018-04-17T11:04:00.606Z,544
2018-04-17T11:05:03.225Z,201
2018-04-17T11:06:05.647Z,219
2018-04-17T11:07:08.312Z,170
2018-04-17T11:08:10.694Z,160
2018-04-17T11:09:13.368Z,151
2018-04-17T11:10:16.615Z,129
2018-04-17T11:11:19.006Z,116
2018-04-17T11:12:21.699Z,122
2018-04-17T11:13:24.088Z,153
2018-04-17T11:14:26.484Z,330
2018-04-17T11:15:29.171Z,496
2018-04-17T11:16:31.844Z,242
2018-04-17T11:17:34.241Z,439
2018-04-17T11:18:36.648Z,414
2018-04-17T11:19:39.035Z,517
2018-04-17T11:20:41.429Z,558
2018-04-17T11:21:44.111Z,530
2018-04-17T11:22:46.494Z,596
2018-04-17T11:23:48.891Z,382
2018-04-17T11:24:51.663Z,574
2018-04-17T11:25:54.051Z,604
2018-04-17T11:26:56.836Z,636
2018-04-17T11:27:59.846Z,638
2018-04-17T11:29:02.288Z,622
2018-04-17T11:30:04.683Z,324
2018-04-17T11:31:07.082Z,189
2018-04-17T11:32:09.545Z,187
2018-04-17T11:33:12.327Z,176
2018-04-17T11:34:14.761Z,161
2018-04-17T11:35:17.352Z,156
2018-04-17T11:36:19.874Z,161
2018-04-17T11:37:22.268Z,172
2018-04-17T11:38:24.656Z,191
2018-04-17T11:39:27.117Z,186
2018-04-17T11:40:29.501Z,228
2018-04-17T11:41:31.970Z,291
2018-04-17T11:42:34.368Z,204
2018-04-17T11:43:37.147Z,222
2018-04-17T11:44:39.618Z,207
2018-04-17T11:45:42.042Z,668
2018-04-17T11:46:44.438Z,217
2018-04-17T11:47:46.840Z,189
2018-04-17T11:48:49.237Z,184
2018-04-17T11:49:51.639Z,183
2018-04-17T11:50:54.028Z,471
2018-04-17T11:51:56.436Z,241
2018-04-17T11:52:58.826Z,211
2018-04-17T11:54:01.232Z,258
2018-04-17T11:55:03.910Z,547
2018-04-17T11:56:06.484Z,204
2018-04-17T11:57:08.875Z,225
2018-04-17T11:58:11.509Z,325
2018-04-17T11:59:14.191Z,598
2018-04-17T12:00:16.932Z,540
2018-04-17T12:01:19.324Z,558
2018-04-17T12:02:21.867Z,611
2018-04-17T12:03:24.190Z,554
2018-04-17T12:04:26.632Z,562
2018-04-17T12:05:29.320Z,626
2018-04-17T12:06:31.856Z,623
2018-04-17T12:07:34.636Z,629
2018-04-17T12:08:37.233Z,567
2018-04-17T12:10:10.199Z,165
2018-04-17T12:11:12.948Z,444
2018-04-17T12:12:15.393Z,142
2018-04-17T12:13:17.817Z,179
2018-04-17T12:14:21.309Z,175
2018-04-17T12:15:24.009Z,543
2018-04-17T12:16:26.458Z,567
2018-04-17T12:17:29.587Z,545
2018-04-17T12:18:32.017Z,203
2018-04-17T12:19:34.731Z,540
2018-04-17T12:20:37.414Z,558
2018-04-17T12:21:39.812Z,495
2018-04-17T12:22:42.948Z,485
2018-04-17T12:23:45.519Z,545
2018-04-17T12:24:48.583Z,529
2018-04-17T12:25:51.197Z,543
2018-04-17T12:26:54.684Z,469
2018-04-17T12:27:57.550Z,478
2018-04-17T12:29:00.088Z,478
2018-04-17T12:30:02.912Z,420
2018-04-17T12:31:05.321Z,162
2018-04-17T12:32:07.702Z,196
2018-04-17T12:33:10.107Z,488
2018-04-17T12:34:12.509Z,529
2018-04-17T12:35:14.917Z,514
2018-04-17T12:36:17.312Z,235
2018-04-17T12:37:20.282Z,468
2018-04-17T12:38:22.697Z,534
2018-04-17T12:39:25.093Z,333
2018-04-17T12:40:27.794Z,155
2018-04-17T12:41:30.185Z,447
2018-04-17T12:42:32.584Z,462
2018-04-17T12:43:34.998Z,444
2018-04-17T12:44:37.403Z,497
2018-04-17T12:45:39.805Z,564
2018-04-17T12:46:42.210Z,537
2018-04-17T12:47:44.608Z,561
2018-04-17T12:48:47.019Z,131
2018-04-17T12:49:49.427Z,138
2018-04-17T12:50:51.814Z,167
2018-04-17T12:51:54.576Z,194
2018-04-17T12:52:56.975Z,208
2018-04-17T12:53:59.360Z,206
2018-04-17T12:55:01.776Z,408
2018-04-17T12:56:04.852Z,348
2018-04-17T12:57:07.242Z,493
2018-04-17T12:58:09.657Z,473
2018-04-17T12:59:12.048Z,462
2018-04-17T13:00:14.458Z,459
2018-04-17T13:01:16.857Z,441
2018-04-17T13:02:19.258Z,417
2018-04-17T13:03:22.044Z,418
2018-04-17T13:04:24.443Z,471
2018-04-17T13:05:26.838Z,478
2018-04-17T13:06:29.239Z,451
2018-04-17T13:07:31.650Z,437
2018-04-17T13:08:34.046Z,426
2018-04-17T13:09:36.831Z,460
2018-04-17T13:10:39.267Z,522
2018-04-17T13:11:41.662Z,492
2018-04-17T13:12:44.062Z,278
2018-04-17T13:13:46.470Z,459
2018-04-17T13:14:48.855Z,428
2018-04-17T13:15:51.541Z,422
2018-04-17T13:16:53.950Z,432
2018-04-17T13:17:56.346Z,403
2018-04-17T13:18:58.749Z,374
2018-04-17T13:20:01.147Z,375
2018-04-17T13:21:03.830Z,390
2018-04-17T13:22:06.558Z,392
2018-04-17T13:23:08.958Z,384
2018-04-17T13:24:11.354Z,372
2018-04-17T13:25:13.753Z,393
2018-04-17T13:26:16.156Z,361
2018-04-17T13:27:18.564Z,361
2018-04-17T13:28:20.964Z,396
2018-04-17T13:29:23.650Z,414
2018-04-17T13:30:26.339Z,384
2018-04-17T13:31:29.033Z,360
2018-04-17T13:32:31.454Z,386
2018-04-17T13:33:33.839Z,383
2018-04-17T13:34:36.239Z,349
2018-04-17T13:35:38.927Z,372
2018-04-17T13:36:41.326Z,425
2018-04-17T13:37:43.736Z,407
2018-04-17T13:38:46.131Z,393
2018-04-17T13:39:48.532Z,357
2018-04-17T13:40:50.937Z,357
2018-04-17T13:41:53.730Z,331
2018-04-17T13:42:56.144Z,315
2018-04-17T13:43:58.536Z,325
2018-04-17T13:45:01.224Z,312
2018-04-17T13:46:03.636Z,301
2018-04-17T13:47:06.028Z,295
2018-04-17T13:48:08.442Z,308
2018-04-17T13:49:10.867Z,346
2018-04-17T13:50:13.263Z,350
2018-04-17T13:51:15.671Z,414
2018-04-17T13:52:18.078Z,375
2018-04-17T13:53:20.624Z,353
2018-04-17T13:54:23.034Z,343
2018-04-17T13:55:25.528Z,325
2018-04-17T13:56:28.627Z,356
2018-04-17T13:57:31.032Z,334
2018-04-17T13:58:33.438Z,347
2018-04-17T13:59:35.899Z,347
2018-04-17T14:00:38.300Z,333
2018-04-17T14:01:40.697Z,357
2018-04-17T14:02:43.103Z,338
2018-04-17T14:03:45.796Z,340
2018-04-17T14:04:48.686Z,363
2018-04-17T14:05:51.084Z,383
2018-04-17T14:06:54.018Z,356
2018-04-17T14:07:56.427Z,334
2018-04-17T14:08:58.834Z,335
2018-04-17T14:10:01.246Z,325
2018-04-17T14:11:03.672Z,316
2018-04-17T14:12:06.078Z,310
2018-04-17T14:13:08.875Z,294
2018-04-17T14:14:11.543Z,267
2018-04-17T14:15:13.955Z,286
2018-04-17T14:16:16.494Z,286
2018-04-17T14:17:18.907Z,285
2018-04-17T14:18:21.801Z,274
2018-04-17T14:19:24.529Z,257
2018-04-17T14:20:28.237Z,286
2018-04-17T14:21:30.834Z,296
2018-04-17T14:22:33.235Z,284
2018-04-17T14:23:35.953Z,269
2018-04-17T14:24:38.355Z,271
2018-04-17T14:25:40.761Z,262
2018-04-17T14:26:43.172Z,260
2018-04-17T14:27:45.972Z,273
2018-04-17T14:28:48.392Z,301
2018-04-17T14:29:51.697Z,289
2018-04-17T14:30:54.118Z,281
2018-04-17T14:31:56.517Z,263
2018-04-17T14:32:58.914Z,261
2018-04-17T14:34:01.715Z,280
2018-04-17T14:35:04.431Z,293
2018-04-17T14:36:07.177Z,257
2018-04-17T14:37:09.755Z,254
2018-04-17T14:38:12.151Z,266
2018-04-17T14:39:15.551Z,253
2018-04-17T14:40:17.984Z,261
2018-04-17T14:41:20.398Z,272
2018-04-17T14:42:23.113Z,268
2018-04-17T14:43:26.295Z,244
2018-04-17T14:44:28.943Z,233
2018-04-17T14:45:31.360Z,237
2018-04-17T14:46:33.764Z,230
2018-04-17T14:47:36.166Z,263